Springlake, TX (79082)

9:17 AM CDT on September 25, 2016 (GMT -0500)
OTT FARM | | Change Station

Elev 3858 ft 34.38 °N, 102.49 °W | Updated 26 seconds ago

Overcast
Overcast
58.0 °F
Feels Like 58.0 °F
N
6.0
Wind Variable Wind from ESE

Today
High -- | Low -- °F
--% Chance of Precip.
Yesterday
High -- | Low -- °F
Precip. -- in
Pressure 30.15 in
Visibility 4.0 miles
Clouds Overcast 500 ft
Dew Point 55 °F
Humidity 91%
Rainfall 0.00 in
Snow Depth Not available.
7:39 AM 7:41 PM
Waning Crescent, 27% visible
METAR KPVW 251355Z AUTO 36003KT 4SM BR OVC005 18/17 A3015 RMK AO2 T01800173
Pressure 30.15 in
Visibility 4.0 miles
Clouds Overcast 500 ft
Dew Point 55 °F
Humidity 91%
Rainfall 0.00 in
Snow Depth Not available.
7:39 AM 7:41 PM
Waning Crescent, 27% visible
METAR KPVW 251355Z AUTO 36003KT 4SM BR OVC005 18/17 A3015 RMK AO2 T01800173

10-Day Weather Forecast

Almanac

Astronomy

Sep. 25, 2016 Rise Set
Actual Time
Civil Twilight
Nautical Twilight
Astronomical Twilight
Moon
Length of Visible Light
Length of Day
Tomorrow will be .
, % of the Moon is Illuminated

Today's Extremes

State Highs State Lows

Community

WunderPhotos

Upload Photos

1,941,618 photos uploaded!

WunderBlog® & News

Nearby

Air Quality

  Air Quality AQ Index Pollutant
Not available.

Snow Depth

Station Depth Elevation

Earthquake Activity

City Distance Mag. Time & Date
Minimum magnitude displayed is 2.5.

Coastal Water Temperatures

Place Temperature

Stations

Nearby Weather Stations

Station Location Temp. Windchill Dew Point Humidity Wind Precip. Elev Updated Type
                   

Watches & Warnings

There are currently no watches in effect.